Flight Track Log - Related Links

Times and Time Zones

All times are in EDT time to prevent confusion due to time zone crossing. See the SKW4970 flight status page for this flight to view local times or setup timezone preferences in your user account.


Time Position Orientation Groundspeed Altitude Reporting Facility
EDT Latitude Longitude Course Direction KTS MPH feet Rate Location/Type
Mon 04:59:52 PM 32.8667 -96.8500 159° South 162 186 1,200  Level Dallas / Fort Worth TRACON
Mon 05:00:40 PM 32.8833 -96.8833 301° West 174 200 3,600 2,722 Climbing Dallas / Fort Worth TRACON
Mon 05:01:40 PM 32.9000 -96.9500 287° West 243 280 6,100 2,750 Climbing Dallas / Fort Worth TRACON
Mon 05:02:40 PM 32.8167 -96.9500 180° South 295 339 9,100 2,874 Climbing Dallas / Fort Worth TRACON
Mon 05:03:00 PM 32.6308 -96.9392 161° South  Level FlightAware Approximate
Mon 05:04:00 PM 32.5324 -96.9052 164° South  Level FlightAware Approximate
Mon 05:04:27 PM 32.6592 -96.9125 169° South 333 383 14,100  Level Fort Worth Center
Mon 05:05:00 PM 32.4348 -96.8688 159° South  Level FlightAware Approximate
Mon 05:06:37 PM 32.4553 -96.8608 168° South 369 425 19,500  Level Houston Center
Mon 05:07:27 PM 32.3603 -96.8331 166° South 375 432 21,400 1,861 Climbing Fort Worth Center
Mon 05:09:44 PM 32.1225 -96.7531 164° South 430 495 25,300 1,960 Climbing Houston Center
Mon 05:10:46 PM 31.9911 -96.7025 162° South 422 486 27,900 1,790 Climbing Houston Center
Mon 05:11:48 PM 31.8778 -96.6600 162° South 424 488 29,000 532 Climbing Houston Center
Mon 05:12:50 PM 31.7550 -96.6103 161° South 460 529 29,000 -32 Level Houston Center
Mon 05:14:00 PM 31.6421 -96.5635 161° South  Level FlightAware Approximate
Mon 05:14:54 PM 31.5058 -96.5075 161° South 468 539 28,900  Level Houston Center
Mon 05:15:56 PM 31.3931 -96.4381 152° Southeast 454 522 27,800 -1,476 Descending Houston Center
Mon 05:17:00 PM 31.2860 -96.4193 139° Southeast  Level FlightAware Approximate
Mon 05:18:01 PM 31.1439 -96.2839 139° Southeast 462 532 24,300  Level Houston Center
Mon 05:19:03 PM 31.0331 -96.2169 153° Southeast 447 514 21,500 -2,381 Descending Houston Center
Mon 05:21:00 PM 30.8712 -96.0803 139° Southeast  Level Estimated
Mon 05:23:11 PM 30.6267 -95.9678 139° Southeast 402 463 12,000  Level Houston Center
Mon 05:23:43 PM 30.5706 -95.9342 153° Southeast 406 467 12,000  Level Houston Center
Mon 05:24:13 PM 30.5258 -95.9067 152° Southeast 408 470 12,000  Level Houston Center
Mon 05:24:44 PM 30.4708 -95.8731 152° Southeast 337 388 12,000  Level Houston Center
Mon 05:25:45 PM 30.4003 -95.8086 142° Southeast 325 374 12,000  Level Houston Center
Mon 05:26:18 PM 30.3769 -95.7836 137° Southeast 322 371 12,000  Level Houston Center
Mon 05:26:46 PM 30.3331 -95.7389 139° Southeast 325 374 12,000 -194 Level Houston Center
Mon 05:27:20 PM 30.2978 -95.6992 136° Southeast 322 371 11,800 -984 Descending Houston Center
Mon 05:27:47 PM 30.2683 -95.6692 139° Southeast 314 361 11,000 -1,839 Descending Houston Center
Mon 05:28:00 PM 30.2918 -95.6918 139° Southeast  Level FlightAware Approximate
Mon 05:28:22 PM 30.2333 -95.6331 138° Southeast 315 362 9,900  Level Houston Center
Mon 05:28:48 PM 30.2011 -95.5997 138° Southeast 305 351 9,000 -1,694 Descending Houston Center
Mon 05:30:00 PM 30.1101 -95.5101 139° Southeast  Level FlightAware Approximate
Mon 05:30:26 PM 30.1108 -95.5044 139° Southeast 296 341 6,400  Level Houston Center
Mon 05:30:56 PM 30.1058 -95.4517 96° East 275 316 6,000 -194 Descending Houston Center
Mon 05:32:00 PM 30.0224 -95.3758 131° Southeast  Level Estimated
Mon 05:32:30 PM 30.1053 -95.3231 131° Southeast 283 326 6,000  Level Houston Center
Mon 05:32:59 PM 30.1056 -95.2633 90° East 279 321 5,900 -1,048 Descending Houston Center
Mon 05:33:33 PM 30.1050 -95.2181 91° East 277 319 4,900 -1,375 Descending Houston Center
Mon 05:34:35 PM 30.0850 -95.1414 107° East 261 300 3,700 -1,091 Descending Houston Center
Mon 05:35:01 PM 30.0544 -95.1417 180° South 241 277 3,300 -677 Descending Houston Center
Mon 05:35:37 PM 30.0353 -95.1717 234° Southwest 237 273 3,000 -882 Descending Houston Center
Mon 05:36:09 PM 30.0167 -95.2092 240° Southwest 215 247 2,300 -1,258 Descending Houston Center
Mon 05:36:39 PM 30.0072 -95.2306 243° Southwest 223 257 1,700 -982 Descending Houston Center
Mon 05:37:04 PM 29.9958 -95.2575 244° Southwest 174 200 1,400 -767 Descending Houston Center
Mon 05:38:05 PM 29.9936 -95.3036 267° West 135 155 600 -606 Descending Houston Center
Mon 05:38:43 PM 29.9944 -95.3231 273° West 155 178 400 -316 Descending Houston Center

Login

Don't have an account? Register now (free) for customized features, flight alerts, and more!